createdAt,value
2022-07-27T00:01:25.315Z,17.36
2022-07-27T00:03:51.849Z,17.38
2022-07-27T00:06:18.335Z,17.27
2022-07-27T00:08:45.487Z,17.18
2022-07-27T00:11:12.110Z,17.12
2022-07-27T00:13:39.165Z,17.16
2022-07-27T00:16:06.257Z,17.15
2022-07-27T00:18:32.839Z,17.13
2022-07-27T00:20:59.827Z,17.13
2022-07-27T00:23:26.517Z,17.09
2022-07-27T00:25:53.020Z,17.01
2022-07-27T00:28:19.662Z,17.01
2022-07-27T00:30:46.564Z,16.98
2022-07-27T00:33:17.101Z,16.93
2022-07-27T00:35:44.244Z,16.91
2022-07-27T00:38:10.722Z,16.85
2022-07-27T00:40:37.272Z,16.82
2022-07-27T00:43:03.770Z,16.76
2022-07-27T00:45:30.542Z,16.74
2022-07-27T00:47:57.093Z,16.64
2022-07-27T00:50:23.588Z,16.63
2022-07-27T00:52:50.672Z,16.61
2022-07-27T00:55:17.187Z,16.64
2022-07-27T00:57:57.939Z,16.54
2022-07-27T01:00:26.051Z,16.51
2022-07-27T01:02:52.673Z,16.55
2022-07-27T01:09:24.635Z,16.48
2022-07-27T01:11:53.860Z,16.41
2022-07-27T01:14:20.615Z,16.38
2022-07-27T01:16:55.290Z,16.34
2022-07-27T01:19:21.734Z,16.35
2022-07-27T01:21:48.191Z,16.29
2022-07-27T01:24:14.807Z,16.23
2022-07-27T01:26:41.425Z,16.19
2022-07-27T01:29:08.165Z,16.06
2022-07-27T01:31:34.980Z,16.11
2022-07-27T01:34:01.743Z,16.03
2022-07-27T01:36:28.303Z,15.99
2022-07-27T01:38:55.688Z,15.99
2022-07-27T01:41:23.808Z,15.97
2022-07-27T01:43:50.306Z,15.91
2022-07-27T01:46:16.870Z,15.93
2022-07-27T01:48:43.508Z,15.84
2022-07-27T01:51:10.025Z,15.80
2022-07-27T01:53:36.482Z,15.78
2022-07-27T01:56:02.974Z,15.74
2022-07-27T01:58:29.817Z,15.69
2022-07-27T02:00:56.352Z,15.65
2022-07-27T02:03:22.839Z,15.59
2022-07-27T02:05:49.333Z,15.55
2022-07-27T02:08:15.965Z,15.50
2022-07-27T02:11:02.468Z,15.49
2022-07-27T02:13:28.959Z,15.44
2022-07-27T02:15:56.943Z,15.51
2022-07-27T02:18:33.709Z,15.55
2022-07-27T02:21:04.487Z,15.49
2022-07-27T02:23:31.952Z,15.41
2022-07-27T02:25:58.800Z,15.41
2022-07-27T02:28:25.310Z,15.27
2022-07-27T02:30:51.834Z,15.27
2022-07-27T02:33:18.402Z,15.23
2022-07-27T02:35:45.031Z,15.20
2022-07-27T02:38:11.567Z,15.22
2022-07-27T02:40:38.098Z,15.15
2022-07-27T02:43:04.593Z,15.04
2022-07-27T02:45:31.096Z,15.05
2022-07-27T02:47:57.647Z,15.02
2022-07-27T02:50:24.290Z,14.91
2022-07-27T02:52:50.819Z,14.89
2022-07-27T02:55:17.321Z,14.87
2022-07-27T02:57:43.860Z,14.80
2022-07-27T03:00:13.942Z,14.68
2022-07-27T03:02:40.740Z,14.73
2022-07-27T03:05:08.514Z,14.68
2022-07-27T03:07:35.020Z,14.71
2022-07-27T03:10:01.703Z,14.64
2022-07-27T03:12:28.701Z,14.56
2022-07-27T03:14:56.333Z,14.63
2022-07-27T03:17:23.027Z,14.51
2022-07-27T03:19:49.921Z,14.42
2022-07-27T03:22:16.812Z,14.41
2022-07-27T03:24:43.430Z,14.43
2022-07-27T03:27:09.923Z,14.38
2022-07-27T03:29:36.504Z,14.38
2022-07-27T03:32:03.103Z,14.43
2022-07-27T03:34:29.631Z,14.49
2022-07-27T03:36:56.101Z,14.43
2022-07-27T03:39:22.570Z,14.42
2022-07-27T03:41:49.209Z,14.48
2022-07-27T03:44:15.723Z,14.45
2022-07-27T03:46:42.251Z,14.45
2022-07-27T03:49:14.684Z,14.44
2022-07-27T03:51:42.474Z,14.46
2022-07-27T03:54:09.087Z,14.42
2022-07-27T03:56:36.023Z,14.40
2022-07-27T03:59:02.556Z,14.44
2022-07-27T04:01:29.104Z,14.37
2022-07-27T04:03:55.701Z,14.40
2022-07-27T04:06:22.217Z,14.40
2022-07-27T04:08:48.757Z,14.41
2022-07-27T04:11:17.711Z,14.41
2022-07-27T04:13:48.235Z,14.44
2022-07-27T04:16:15.081Z,14.40
2022-07-27T04:18:41.861Z,14.41
2022-07-27T04:21:08.460Z,14.36
2022-07-27T04:23:38.273Z,14.35
2022-07-27T04:26:05.108Z,14.41
2022-07-27T04:28:32.624Z,14.34
2022-07-27T04:30:59.569Z,14.36
2022-07-27T04:33:26.213Z,14.40
2022-07-27T04:35:52.701Z,14.50
2022-07-27T04:38:19.174Z,14.52
2022-07-27T04:40:45.676Z,14.51
2022-07-27T04:43:12.185Z,14.49
2022-07-27T04:45:38.920Z,14.41
2022-07-27T04:48:08.947Z,14.44
2022-07-27T04:50:47.067Z,14.62
2022-07-27T04:53:14.678Z,14.72
2022-07-27T04:55:45.616Z,14.74
2022-07-27T04:58:13.670Z,14.85
2022-07-27T05:00:40.648Z,14.98
2022-07-27T05:03:07.293Z,14.99
2022-07-27T05:05:33.986Z,15.11
2022-07-27T05:08:00.540Z,15.18
2022-07-27T05:10:27.091Z,15.21
2022-07-27T05:12:53.815Z,15.38
2022-07-27T05:15:20.697Z,15.32
2022-07-27T05:17:47.611Z,15.38
2022-07-27T05:20:14.629Z,15.42
2022-07-27T05:22:41.101Z,15.41
2022-07-27T05:25:08.378Z,15.40
2022-07-27T05:27:36.095Z,15.48
2022-07-27T05:30:06.288Z,15.48
2022-07-27T05:32:32.876Z,15.41
2022-07-27T05:34:59.370Z,15.45
2022-07-27T05:37:25.879Z,15.56
2022-07-27T05:39:52.455Z,15.51
2022-07-27T05:42:18.945Z,15.49
2022-07-27T05:44:45.468Z,15.64
2022-07-27T05:47:11.954Z,15.80
2022-07-27T05:49:38.553Z,15.66
2022-07-27T05:52:05.402Z,15.63
2022-07-27T05:54:31.841Z,15.62
2022-07-27T05:56:58.309Z,15.62
2022-07-27T05:59:24.806Z,15.65
2022-07-27T06:01:51.289Z,15.73
2022-07-27T06:04:18.282Z,15.71
2022-07-27T06:07:03.549Z,15.73
2022-07-27T06:09:30.784Z,15.85
2022-07-27T06:11:57.264Z,15.81
2022-07-27T06:14:23.772Z,15.78
2022-07-27T06:16:50.344Z,15.92
2022-07-27T06:19:16.922Z,15.94
2022-07-27T06:21:43.441Z,15.98
2022-07-27T06:24:09.925Z,16.07
2022-07-27T06:26:36.419Z,16.13
2022-07-27T06:29:02.979Z,16.19
2022-07-27T06:31:36.994Z,16.29
2022-07-27T06:34:04.052Z,16.29
2022-07-27T06:36:34.802Z,16.74
2022-07-27T06:39:01.270Z,16.73
2022-07-27T06:41:27.833Z,16.78
2022-07-27T06:43:54.347Z,17.01
2022-07-27T06:46:20.914Z,17.30
2022-07-27T06:48:47.537Z,17.26
2022-07-27T06:51:14.193Z,17.33
2022-07-27T06:53:41.530Z,17.38
2022-07-27T06:56:08.392Z,17.47
2022-07-27T06:58:37.430Z,17.54
2022-07-27T07:01:04.672Z,17.66
2022-07-27T07:03:31.499Z,17.82
2022-07-27T07:05:58.234Z,17.88
2022-07-27T07:08:24.767Z,18.11
2022-07-27T07:10:51.387Z,18.25
2022-07-27T07:13:17.930Z,18.17
2022-07-27T07:15:44.703Z,18.15
2022-07-27T07:18:12.431Z,17.98
2022-07-27T07:20:40.758Z,18.24
2022-07-27T07:23:07.439Z,18.40
2022-07-27T07:25:34.551Z,18.60
2022-07-27T07:28:02.309Z,18.73
2022-07-27T07:30:29.563Z,18.76
2022-07-27T07:32:56.730Z,19.06
2022-07-27T07:35:23.461Z,19.23
2022-07-27T07:37:50.567Z,19.35
2022-07-27T07:40:42.089Z,19.45
2022-07-27T07:43:05.742Z,19.26
2022-07-27T07:45:35.364Z,19.49
2022-07-27T07:48:01.881Z,19.38
2022-07-27T07:50:28.821Z,19.38
2022-07-27T07:52:55.508Z,19.34
2022-07-27T07:55:27.377Z,19.40
2022-07-27T07:57:55.835Z,19.42
2022-07-27T08:00:23.835Z,19.62
2022-07-27T08:02:53.884Z,19.48
2022-07-27T08:05:21.936Z,19.62
2022-07-27T08:07:49.457Z,19.31
2022-07-27T08:10:17.645Z,19.49
2022-07-27T08:12:47.559Z,19.34
2022-07-27T08:15:15.854Z,18.73
2022-07-27T08:17:45.177Z,18.88
2022-07-27T08:20:13.450Z,18.82
2022-07-27T08:22:40.208Z,18.85
2022-07-27T08:25:08.289Z,18.75
2022-07-27T08:27:40.460Z,18.62
2022-07-27T08:30:09.057Z,18.66
2022-07-27T08:32:52.803Z,18.68
2022-07-27T08:35:19.975Z,18.65
2022-07-27T08:37:46.808Z,18.60
2022-07-27T08:43:01.865Z,18.66
2022-07-27T08:45:30.353Z,19.00
2022-07-27T08:47:57.576Z,19.31
2022-07-27T08:50:24.526Z,19.39
2022-07-27T08:53:04.920Z,19.47
2022-07-27T08:55:35.116Z,19.14
2022-07-27T08:58:03.749Z,19.26
2022-07-27T09:00:31.769Z,18.62
2022-07-27T09:02:58.562Z,18.77
2022-07-27T09:05:27.723Z,18.93
2022-07-27T09:08:15.178Z,19.16
2022-07-27T09:10:42.332Z,19.58
2022-07-27T09:13:24.515Z,19.93
2022-07-27T09:16:17.564Z,20.29
2022-07-27T09:18:43.138Z,20.05
2022-07-27T09:21:14.074Z,20.39
2022-07-27T09:23:48.029Z,21.22
2022-07-27T09:26:32.437Z,22.01
2022-07-27T09:29:15.539Z,21.82
2022-07-27T09:31:47.476Z,21.54
2022-07-27T09:34:28.339Z,20.68
2022-07-27T09:36:57.199Z,20.73
2022-07-27T09:39:26.447Z,20.59
2022-07-27T09:41:56.671Z,20.20
2022-07-27T09:44:43.318Z,19.92
2022-07-27T09:47:28.601Z,19.52
2022-07-27T09:50:31.077Z,19.58
2022-07-27T09:53:41.569Z,19.37
2022-07-27T09:56:13.276Z,19.54
2022-07-27T09:58:40.866Z,19.78
2022-07-27T10:01:09.874Z,19.85
2022-07-27T10:03:36.459Z,19.98
2022-07-27T10:06:03.601Z,20.18
2022-07-27T10:08:31.600Z,20.63
2022-07-27T10:10:58.190Z,20.64
2022-07-27T10:13:27.977Z,20.64
2022-07-27T10:15:55.277Z,20.65
2022-07-27T10:18:43.869Z,20.47
2022-07-27T10:21:17.896Z,20.35
2022-07-27T10:24:27.005Z,20.13
2022-07-27T10:26:53.669Z,20.24
2022-07-27T10:29:22.335Z,20.61
2022-07-27T10:31:54.053Z,20.96
2022-07-27T10:34:37.221Z,21.03
2022-07-27T10:37:18.299Z,21.24
2022-07-27T10:39:50.759Z,21.30
2022-07-27T10:42:35.356Z,21.46
2022-07-27T10:45:13.574Z,21.43
2022-07-27T10:47:41.627Z,21.46
2022-07-27T10:50:17.203Z,21.42
2022-07-27T10:52:52.599Z,21.61
2022-07-27T10:55:44.412Z,21.57
2022-07-27T10:58:10.856Z,21.75
2022-07-27T11:00:54.109Z,22.02
2022-07-27T11:03:33.818Z,21.80
2022-07-27T11:06:14.560Z,21.69
2022-07-27T11:09:01.725Z,21.52
2022-07-27T11:11:38.596Z,21.61
2022-07-27T11:14:05.133Z,21.92
2022-07-27T11:16:31.706Z,22.33
2022-07-27T11:19:05.615Z,22.15
2022-07-27T11:21:35.273Z,22.00
2022-07-27T11:24:14.742Z,21.44
2022-07-27T11:26:44.129Z,21.43
2022-07-27T11:29:13.156Z,21.57
2022-07-27T11:31:58.577Z,21.46
2022-07-27T11:34:34.433Z,21.36
2022-07-27T11:37:03.153Z,21.33
2022-07-27T11:42:21.861Z,21.54
2022-07-27T11:44:52.648Z,21.57
2022-07-27T11:47:21.468Z,21.05
2022-07-27T11:49:48.058Z,20.71
2022-07-27T11:52:17.404Z,20.62
2022-07-27T11:54:43.902Z,20.68
2022-07-27T11:57:16.386Z,20.58
2022-07-27T11:59:44.627Z,20.46
2022-07-27T12:02:17.726Z,20.43
2022-07-27T12:04:47.048Z,20.19
2022-07-27T12:07:29.086Z,20.28
2022-07-27T12:09:59.119Z,20.05
2022-07-27T12:12:30.193Z,20.33
2022-07-27T12:14:58.889Z,20.54
2022-07-27T12:17:34.698Z,20.40
2022-07-27T12:20:07.238Z,20.31
2022-07-27T12:22:37.802Z,20.17
2022-07-27T12:25:25.803Z,20.48
2022-07-27T12:28:12.506Z,20.55
2022-07-27T12:30:47.552Z,20.26
2022-07-27T12:33:35.778Z,20.20
2022-07-27T12:36:05.019Z,20.32
2022-07-27T12:38:39.480Z,20.54
2022-07-27T12:41:06.292Z,20.60
2022-07-27T12:43:33.082Z,20.37
2022-07-27T12:46:11.490Z,20.61
2022-07-27T12:48:40.102Z,20.53
2022-07-27T12:51:08.841Z,19.99
2022-07-27T12:53:37.720Z,20.65
2022-07-27T12:56:07.993Z,20.57
2022-07-27T12:58:36.052Z,20.92
2022-07-27T13:01:02.882Z,21.36
2022-07-27T13:03:29.446Z,20.85
2022-07-27T13:05:56.050Z,21.06
2022-07-27T13:08:23.392Z,21.29
2022-07-27T13:10:52.202Z,21.18
2022-07-27T13:13:24.481Z,21.26
2022-07-27T13:15:52.360Z,21.33
2022-07-27T13:18:23.438Z,21.28
2022-07-27T13:20:50.791Z,21.40
2022-07-27T13:23:17.775Z,21.16
2022-07-27T13:25:44.554Z,21.14
2022-07-27T13:28:11.768Z,21.54
2022-07-27T13:30:38.575Z,21.30
2022-07-27T13:33:05.115Z,21.35
2022-07-27T13:35:31.653Z,21.38
2022-07-27T13:37:58.204Z,21.07
2022-07-27T13:40:24.852Z,21.30
2022-07-27T13:42:51.382Z,21.31
2022-07-27T13:45:17.905Z,21.31
2022-07-27T13:47:44.351Z,21.33
2022-07-27T13:50:18.266Z,21.36
2022-07-27T13:52:46.425Z,21.05
2022-07-27T13:55:14.460Z,21.11
2022-07-27T13:57:41.045Z,21.17
2022-07-27T14:00:08.201Z,21.29
2022-07-27T14:02:34.874Z,20.98
2022-07-27T14:05:02.547Z,20.88
2022-07-27T14:07:32.712Z,21.24
2022-07-27T14:10:17.484Z,21.23
2022-07-27T14:12:44.064Z,21.00
2022-07-27T14:15:11.087Z,20.96
2022-07-27T14:17:37.658Z,20.85
2022-07-27T14:20:06.334Z,20.88
2022-07-27T14:22:32.993Z,20.90
2022-07-27T14:24:59.803Z,21.01
2022-07-27T14:27:26.290Z,20.43
2022-07-27T14:30:04.404Z,20.73
2022-07-27T14:32:32.456Z,20.58
2022-07-27T14:34:58.982Z,20.74
2022-07-27T14:37:25.489Z,20.55
2022-07-27T14:39:52.132Z,20.72
2022-07-27T14:42:23.806Z,20.56
2022-07-27T14:44:50.388Z,20.44
2022-07-27T14:47:17.292Z,20.69
2022-07-27T14:49:43.893Z,20.41
2022-07-27T14:52:13.600Z,20.57
2022-07-27T14:54:41.260Z,20.39
2022-07-27T14:57:07.910Z,20.27
2022-07-27T14:59:34.540Z,20.31
2022-07-27T15:02:01.458Z,20.34
2022-07-27T15:04:28.288Z,20.38
2022-07-27T15:06:57.266Z,20.47
2022-07-27T15:09:26.602Z,20.09
2022-07-27T15:11:53.645Z,20.30
2022-07-27T15:14:20.799Z,20.44
2022-07-27T15:16:47.608Z,20.28
2022-07-27T15:19:14.609Z,20.32
2022-07-27T15:21:41.734Z,20.44
2022-07-27T15:24:08.341Z,20.16
2022-07-27T15:26:35.315Z,19.95
2022-07-27T15:29:01.866Z,20.30
2022-07-27T15:31:28.453Z,20.28
2022-07-27T15:33:55.012Z,20.24
2022-07-27T15:36:32.554Z,19.79
2022-07-27T15:38:59.926Z,19.87
2022-07-27T15:41:26.417Z,19.92
2022-07-27T15:43:52.978Z,20.24
2022-07-27T15:46:27.920Z,19.89
2022-07-27T15:48:55.125Z,19.95
2022-07-27T15:51:21.660Z,20.14
2022-07-27T15:53:48.139Z,20.00
2022-07-27T15:56:14.641Z,20.35
2022-07-27T15:58:41.166Z,20.39
2022-07-27T16:01:08.536Z,20.47
2022-07-27T16:03:39.387Z,20.37
2022-07-27T16:06:06.037Z,20.44
2022-07-27T16:08:32.518Z,20.46
2022-07-27T16:10:59.044Z,20.23
2022-07-27T16:13:25.669Z,20.09
2022-07-27T16:16:11.378Z,19.88
2022-07-27T16:18:39.082Z,20.00
2022-07-27T16:21:06.047Z,20.21
2022-07-27T16:23:32.695Z,20.01
2022-07-27T16:26:04.920Z,20.24
2022-07-27T16:28:34.210Z,20.22
2022-07-27T16:31:01.532Z,19.99
2022-07-27T16:33:28.172Z,19.72
2022-07-27T16:35:54.713Z,19.93
2022-07-27T16:38:21.250Z,19.98
2022-07-27T16:40:47.885Z,19.63
2022-07-27T16:43:14.443Z,19.93
2022-07-27T16:45:40.953Z,19.87
2022-07-27T16:48:07.463Z,19.85
2022-07-27T16:50:34.039Z,19.90
2022-07-27T16:53:01.453Z,19.93
2022-07-27T16:55:28.301Z,19.48
2022-07-27T16:57:55.859Z,19.71
2022-07-27T17:00:22.581Z,19.84
2022-07-27T17:02:49.105Z,19.84
2022-07-27T17:05:15.759Z,19.57
2022-07-27T17:07:42.822Z,19.77
2022-07-27T17:10:10.046Z,19.78
2022-07-27T17:12:39.077Z,19.80
2022-07-27T17:15:06.881Z,19.75
2022-07-27T17:17:33.687Z,19.60
2022-07-27T17:20:00.234Z,19.65
2022-07-27T17:22:27.145Z,19.66
2022-07-27T17:24:53.666Z,19.72
2022-07-27T17:27:20.209Z,19.63
2022-07-27T17:29:46.813Z,19.75
2022-07-27T17:32:13.452Z,19.56
2022-07-27T17:34:41.534Z,19.41
2022-07-27T17:37:08.171Z,19.68
2022-07-27T17:39:35.297Z,19.64
2022-07-27T17:42:01.954Z,19.47
2022-07-27T17:44:28.534Z,19.53
2022-07-27T17:46:55.095Z,19.48
2022-07-27T17:49:21.844Z,19.33
2022-07-27T17:51:48.382Z,19.43
2022-07-27T17:54:14.867Z,19.28
2022-07-27T17:56:41.773Z,19.06
2022-07-27T17:59:27.312Z,19.23
2022-07-27T18:01:56.456Z,19.35
2022-07-27T18:04:23.140Z,19.38
2022-07-27T18:06:49.717Z,19.40
2022-07-27T18:09:17.236Z,19.41
2022-07-27T18:11:44.478Z,19.44
2022-07-27T18:14:10.962Z,19.35
2022-07-27T18:16:40.681Z,19.35
2022-07-27T18:19:07.751Z,19.27
2022-07-27T18:21:35.621Z,19.11
2022-07-27T18:24:02.790Z,19.24
2022-07-27T18:26:29.304Z,19.14
2022-07-27T18:28:57.546Z,19.14
2022-07-27T18:31:24.536Z,19.06
2022-07-27T18:33:54.249Z,19.06
2022-07-27T18:36:21.713Z,19.02
2022-07-27T18:38:49.994Z,18.88
2022-07-27T18:41:17.597Z,18.88
2022-07-27T18:43:51.077Z,18.86
2022-07-27T18:46:19.403Z,18.84
2022-07-27T18:48:46.402Z,18.77
2022-07-27T18:51:13.292Z,18.73
2022-07-27T18:53:39.983Z,18.71
2022-07-27T18:56:06.631Z,18.68
2022-07-27T18:58:33.716Z,18.64
2022-07-27T19:01:00.267Z,18.54
2022-07-27T19:03:27.848Z,18.50
2022-07-27T19:05:55.233Z,18.50
2022-07-27T19:08:22.572Z,18.40
2022-07-27T19:10:49.159Z,18.30
2022-07-27T19:13:15.723Z,18.27
2022-07-27T19:15:42.511Z,18.25
2022-07-27T19:18:09.184Z,18.22
2022-07-27T19:20:38.895Z,18.19
2022-07-27T19:23:06.883Z,18.20
2022-07-27T19:25:34.013Z,18.12
2022-07-27T19:28:02.597Z,18.07
2022-07-27T19:30:29.348Z,17.98
2022-07-27T19:32:56.501Z,18.00
2022-07-27T19:35:23.142Z,17.92
2022-07-27T19:37:49.677Z,17.90
2022-07-27T19:43:04.201Z,17.79
2022-07-27T19:45:31.096Z,17.69
2022-07-27T19:47:59.421Z,17.79
2022-07-27T19:50:26.225Z,17.63
2022-07-27T19:52:52.941Z,17.58
2022-07-27T19:55:19.492Z,17.59
2022-07-27T19:57:46.203Z,17.57
2022-07-27T20:00:13.643Z,17.54
2022-07-27T20:02:40.211Z,17.51
2022-07-27T20:05:07.254Z,17.48
2022-07-27T20:07:33.781Z,17.32
2022-07-27T20:10:00.315Z,17.31
2022-07-27T20:12:26.907Z,17.32
2022-07-27T20:14:53.479Z,17.23
2022-07-27T20:17:19.996Z,17.27
2022-07-27T20:19:46.806Z,17.29
2022-07-27T20:22:13.330Z,17.18
2022-07-27T20:24:39.800Z,17.11
2022-07-27T20:27:06.383Z,17.16
2022-07-27T20:29:33.323Z,17.11
2022-07-27T20:32:00.022Z,17.01
2022-07-27T20:34:26.546Z,17.09
2022-07-27T20:36:55.094Z,17.11
2022-07-27T20:39:21.875Z,17.06
2022-07-27T20:41:48.657Z,17.02
2022-07-27T20:44:15.201Z,17.02
2022-07-27T20:46:41.695Z,17.00
2022-07-27T20:49:08.193Z,17.02
2022-07-27T20:51:35.188Z,17.06
2022-07-27T20:54:01.959Z,17.01
2022-07-27T20:56:28.532Z,16.96
2022-07-27T20:58:55.020Z,16.92
2022-07-27T21:01:21.518Z,16.93
2022-07-27T21:03:48.049Z,16.87
2022-07-27T21:06:14.650Z,16.83
2022-07-27T21:08:46.226Z,16.83
2022-07-27T21:11:13.589Z,16.88
2022-07-27T21:13:40.554Z,16.85
2022-07-27T21:16:07.154Z,16.75
2022-07-27T21:18:34.058Z,16.69
2022-07-27T21:21:00.642Z,16.69
2022-07-27T21:23:45.351Z,16.62
2022-07-27T21:26:11.826Z,16.64
2022-07-27T21:28:41.987Z,16.73
2022-07-27T21:31:08.821Z,16.58
2022-07-27T21:33:39.590Z,16.56
2022-07-27T21:36:06.868Z,16.51
2022-07-27T21:38:33.538Z,16.47
2022-07-27T21:41:00.049Z,16.45
2022-07-27T21:43:26.615Z,16.40
2022-07-27T21:45:53.172Z,16.34
2022-07-27T21:48:19.725Z,16.26
2022-07-27T21:50:46.205Z,16.20
2022-07-27T21:53:12.707Z,16.22
2022-07-27T21:55:40.827Z,16.12
2022-07-27T21:58:09.979Z,16.09
2022-07-27T22:00:37.264Z,16.07
2022-07-27T22:03:04.342Z,16.16
2022-07-27T22:05:30.967Z,16.02
2022-07-27T22:08:00.006Z,15.95
2022-07-27T22:10:28.099Z,15.84
2022-07-27T22:12:54.943Z,15.84
2022-07-27T22:15:21.491Z,15.81
2022-07-27T22:17:50.748Z,15.85
2022-07-27T22:20:18.743Z,15.79
2022-07-27T22:22:45.577Z,15.87
2022-07-27T22:25:12.222Z,15.80
2022-07-27T22:27:39.226Z,15.74
2022-07-27T22:30:06.517Z,15.69
2022-07-27T22:32:33.162Z,15.70
2022-07-27T22:34:59.629Z,15.67
2022-07-27T22:37:26.367Z,15.62
2022-07-27T22:39:53.032Z,15.59
2022-07-27T22:42:19.875Z,15.60
2022-07-27T22:44:46.383Z,15.54
2022-07-27T22:47:12.917Z,15.53
2022-07-27T22:49:39.416Z,15.54
2022-07-27T22:52:06.505Z,15.49
2022-07-27T22:54:34.666Z,15.44
2022-07-27T22:57:01.181Z,15.36
2022-07-27T22:59:27.712Z,15.37
2022-07-27T23:01:54.292Z,15.37
2022-07-27T23:04:20.882Z,15.34
2022-07-27T23:06:47.465Z,15.32
2022-07-27T23:09:14.266Z,15.25
2022-07-27T23:11:41.085Z,15.21
2022-07-27T23:14:07.676Z,15.23
2022-07-27T23:16:34.595Z,15.14
2022-07-27T23:19:01.203Z,15.13
2022-07-27T23:21:27.810Z,15.07
2022-07-27T23:23:54.420Z,15.10
2022-07-27T23:26:26.168Z,15.05
2022-07-27T23:28:53.944Z,15.02
2022-07-27T23:31:21.299Z,14.97
2022-07-27T23:33:47.956Z,14.88
2022-07-27T23:36:14.813Z,14.84
2022-07-27T23:38:41.671Z,14.72
2022-07-27T23:41:08.333Z,14.82
2022-07-27T23:43:34.833Z,14.82
2022-07-27T23:46:01.374Z,14.80
2022-07-27T23:48:28.891Z,14.75
2022-07-27T23:50:55.525Z,14.72
2022-07-27T23:53:22.123Z,14.69
2022-07-27T23:55:48.690Z,14.58
2022-07-27T23:58:15.237Z,14.61
